createdAt,value
2023-04-09T00:01:35.752Z,3.95
2023-04-09T00:04:02.236Z,3.86
2023-04-09T00:06:28.704Z,3.83
2023-04-09T00:08:55.079Z,3.79
2023-04-09T00:11:21.697Z,3.73
2023-04-09T00:13:49.246Z,3.72
2023-04-09T00:16:15.727Z,3.75
2023-04-09T00:18:42.232Z,3.80
2023-04-09T00:21:09.020Z,3.76
2023-04-09T00:23:36.026Z,3.74
2023-04-09T00:26:02.716Z,3.70
2023-04-09T00:28:29.256Z,3.65
2023-04-09T00:30:55.871Z,3.66
2023-04-09T00:33:22.359Z,3.67
2023-04-09T00:35:49.005Z,3.66
2023-04-09T00:38:15.498Z,3.64
2023-04-09T00:40:42.220Z,3.66
2023-04-09T00:43:08.873Z,3.69
2023-04-09T00:45:36.332Z,3.67
2023-04-09T00:48:02.895Z,3.65
2023-04-09T00:50:29.322Z,3.65
2023-04-09T00:52:56.152Z,3.61
2023-04-09T00:55:22.720Z,3.64
2023-04-09T00:57:49.120Z,3.64
2023-04-09T01:00:15.797Z,3.63
2023-04-09T01:02:43.686Z,3.67
2023-04-09T01:05:12.338Z,3.76
2023-04-09T01:07:54.845Z,3.77
2023-04-09T01:10:38.136Z,3.78
2023-04-09T01:13:11.777Z,3.61
2023-04-09T01:15:46.766Z,3.61
2023-04-09T01:18:29.397Z,3.49
2023-04-09T01:21:02.706Z,3.42
2023-04-09T01:23:42.769Z,3.33
2023-04-09T01:26:22.745Z,3.17
2023-04-09T01:28:54.264Z,3.18
2023-04-09T01:31:28.327Z,3.07
2023-04-09T01:33:55.535Z,3.05
2023-04-09T01:36:24.103Z,2.95
2023-04-09T01:38:52.420Z,2.82
2023-04-09T01:41:21.976Z,2.76
2023-04-09T01:43:50.787Z,2.73
2023-04-09T01:46:19.289Z,2.71
2023-04-09T01:48:46.821Z,2.68
2023-04-09T01:51:14.254Z,2.65
2023-04-09T01:53:41.807Z,2.58
2023-04-09T01:56:09.447Z,2.55
2023-04-09T01:58:36.196Z,2.48
2023-04-09T02:01:41.499Z,2.40
2023-04-09T02:04:30.761Z,2.38
2023-04-09T02:07:26.077Z,2.35
2023-04-09T02:09:54.565Z,2.36
2023-04-09T02:12:22.022Z,2.32
2023-04-09T02:14:52.382Z,2.25
2023-04-09T02:17:19.409Z,2.14
2023-04-09T02:19:47.765Z,2.06
2023-04-09T02:22:16.121Z,2.06
2023-04-09T02:24:42.653Z,1.99
2023-04-09T02:27:09.245Z,1.95
2023-04-09T02:29:35.801Z,1.96
2023-04-09T02:32:02.441Z,1.91
2023-04-09T02:34:28.891Z,1.88
2023-04-09T02:36:55.402Z,1.84
2023-04-09T02:39:21.962Z,1.77
2023-04-09T02:41:48.394Z,1.72
2023-04-09T02:44:14.844Z,1.66
2023-04-09T02:46:42.431Z,1.64
2023-04-09T02:49:09.027Z,1.64
2023-04-09T02:51:36.409Z,1.62
2023-04-09T02:54:04.076Z,1.61
2023-04-09T02:56:30.654Z,1.64
2023-04-09T02:58:57.126Z,1.63
2023-04-09T03:01:23.583Z,1.57
2023-04-09T03:03:50.439Z,1.55
2023-04-09T03:06:18.445Z,1.47
2023-04-09T03:08:45.235Z,1.49
2023-04-09T03:11:11.654Z,1.54
2023-04-09T03:13:38.041Z,1.60
2023-04-09T03:16:04.705Z,1.58
2023-04-09T03:18:31.332Z,1.59
2023-04-09T03:20:57.781Z,1.61
2023-04-09T03:23:24.276Z,1.56
2023-04-09T03:26:00.374Z,1.47
2023-04-09T03:28:26.800Z,1.40
2023-04-09T03:30:53.363Z,1.41
2023-04-09T03:33:19.906Z,1.36
2023-04-09T03:35:46.358Z,1.33
2023-04-09T03:38:12.757Z,1.34
2023-04-09T03:40:39.318Z,1.36
2023-04-09T03:43:05.658Z,1.34
2023-04-09T03:45:32.080Z,1.28
2023-04-09T03:47:58.447Z,1.27
2023-04-09T03:50:25.009Z,1.22
2023-04-09T03:52:51.418Z,1.27
2023-04-09T03:55:17.776Z,1.22
2023-04-09T03:57:44.191Z,1.22
2023-04-09T04:00:11.019Z,1.19
2023-04-09T04:02:37.631Z,1.26
2023-04-09T04:05:04.508Z,1.30
2023-04-09T04:07:32.251Z,1.24
2023-04-09T04:09:58.686Z,1.18
2023-04-09T04:12:25.213Z,1.17
2023-04-09T04:14:51.730Z,1.14
2023-04-09T04:17:18.180Z,1.12
2023-04-09T04:19:44.624Z,1.14
2023-04-09T04:22:11.282Z,1.21
2023-04-09T04:24:37.771Z,1.31
2023-04-09T04:27:04.405Z,1.38
2023-04-09T04:29:30.855Z,1.34
2023-04-09T04:31:57.233Z,1.31
2023-04-09T04:34:23.711Z,1.32
2023-04-09T04:36:50.163Z,1.29
2023-04-09T04:39:16.509Z,1.30
2023-04-09T04:41:42.936Z,1.32
2023-04-09T04:44:09.517Z,1.29
2023-04-09T04:46:35.900Z,1.28
2023-04-09T04:49:02.440Z,1.28
2023-04-09T04:51:31.526Z,1.33
2023-04-09T04:53:57.992Z,1.34
2023-04-09T04:56:24.450Z,1.38
2023-04-09T04:58:50.988Z,1.34
2023-04-09T05:01:17.717Z,1.22
2023-04-09T05:03:44.321Z,1.16
2023-04-09T05:06:11.130Z,1.09
2023-04-09T05:08:37.514Z,1.10
2023-04-09T05:11:03.985Z,1.13
2023-04-09T05:13:30.412Z,1.11
2023-04-09T05:15:56.882Z,1.09
2023-04-09T05:18:23.290Z,1.08
2023-04-09T05:20:49.760Z,1.16
2023-04-09T05:23:16.278Z,1.28
2023-04-09T05:25:42.697Z,1.34
2023-04-09T05:28:11.201Z,1.38
2023-04-09T05:30:37.742Z,1.33
2023-04-09T05:33:04.242Z,1.33
2023-04-09T05:35:30.887Z,1.37
2023-04-09T05:37:57.437Z,1.41
2023-04-09T05:40:24.014Z,1.54
2023-04-09T05:42:50.436Z,1.66
2023-04-09T05:45:16.866Z,1.87
2023-04-09T05:47:43.299Z,2.00
2023-04-09T05:50:10.245Z,2.03
2023-04-09T05:52:36.885Z,2.01
2023-04-09T05:55:03.743Z,2.01
2023-04-09T05:57:31.734Z,2.11
2023-04-09T05:59:58.471Z,2.16
2023-04-09T06:02:25.272Z,2.24
2023-04-09T06:04:51.988Z,2.33
2023-04-09T06:07:18.586Z,2.38
2023-04-09T06:09:46.786Z,2.38
2023-04-09T06:12:13.527Z,2.42
2023-04-09T06:14:39.903Z,2.58
2023-04-09T06:17:06.275Z,2.82
2023-04-09T06:19:32.751Z,2.91
2023-04-09T06:21:59.284Z,3.12
2023-04-09T06:24:26.042Z,3.20
2023-04-09T06:26:52.439Z,3.25
2023-04-09T06:29:18.920Z,3.27
2023-04-09T06:31:45.353Z,3.50
2023-04-09T06:34:11.752Z,3.77
2023-04-09T06:36:40.193Z,3.82
2023-04-09T06:39:07.124Z,3.85
2023-04-09T06:41:33.693Z,3.78
2023-04-09T06:44:00.573Z,3.78
2023-04-09T06:46:27.224Z,3.83
2023-04-09T06:48:53.904Z,3.85
2023-04-09T06:51:20.362Z,4.02
2023-04-09T06:53:48.314Z,4.27
2023-04-09T06:56:14.897Z,4.62
2023-04-09T06:58:41.389Z,5.01
2023-04-09T07:01:08.045Z,4.88
2023-04-09T07:03:34.624Z,4.72
2023-04-09T07:06:01.243Z,4.84
2023-04-09T07:08:28.610Z,4.98
2023-04-09T07:10:55.028Z,5.26
2023-04-09T07:13:21.561Z,5.45
2023-04-09T07:15:48.136Z,5.38
2023-04-09T07:18:14.558Z,5.30
2023-04-09T07:20:41.034Z,5.15
2023-04-09T07:23:07.524Z,5.31
2023-04-09T07:25:34.077Z,5.37
2023-04-09T07:28:00.617Z,5.36
2023-04-09T07:30:27.416Z,5.45
2023-04-09T07:32:54.271Z,5.58
2023-04-09T07:35:20.877Z,5.67
2023-04-09T07:37:47.410Z,5.81
2023-04-09T07:40:14.034Z,5.88
2023-04-09T07:42:40.757Z,5.91
2023-04-09T07:45:07.645Z,6.00
2023-04-09T07:47:34.145Z,6.10
2023-04-09T07:50:00.721Z,6.05
2023-04-09T07:52:27.278Z,6.16
2023-04-09T07:54:53.796Z,6.09
2023-04-09T07:57:20.156Z,6.12
2023-04-09T07:59:46.682Z,6.12
2023-04-09T08:02:15.398Z,6.19
2023-04-09T08:04:42.372Z,6.23
2023-04-09T08:07:10.516Z,6.28
2023-04-09T08:09:36.949Z,6.30
2023-04-09T08:12:03.802Z,6.23
2023-04-09T08:14:30.371Z,6.36
2023-04-09T08:16:56.805Z,6.49
2023-04-09T08:19:23.262Z,6.71
2023-04-09T08:21:49.755Z,7.14
2023-04-09T08:24:16.347Z,7.33
2023-04-09T08:26:43.033Z,7.84
2023-04-09T08:29:12.276Z,7.70
2023-04-09T08:31:39.390Z,8.20
2023-04-09T08:34:06.209Z,8.53
2023-04-09T08:36:34.605Z,8.70
2023-04-09T08:39:01.883Z,8.54
2023-04-09T08:41:29.282Z,8.22
2023-04-09T08:43:58.963Z,8.16
2023-04-09T08:46:27.274Z,7.78
2023-04-09T08:48:54.244Z,7.86
2023-04-09T08:51:22.720Z,7.93
2023-04-09T08:53:58.371Z,7.95
2023-04-09T08:56:26.039Z,7.88
2023-04-09T08:58:53.399Z,7.93
2023-04-09T09:01:24.697Z,7.72
2023-04-09T09:03:56.420Z,7.73
2023-04-09T09:06:32.949Z,7.65
2023-04-09T09:09:16.751Z,7.68
2023-04-09T09:11:45.729Z,7.47
2023-04-09T09:14:14.325Z,7.40
2023-04-09T09:16:43.680Z,7.43
2023-04-09T09:19:25.284Z,7.36
2023-04-09T09:21:58.607Z,7.38
2023-04-09T09:24:25.042Z,7.39
2023-04-09T09:26:52.180Z,7.26
2023-04-09T09:29:19.795Z,7.41
2023-04-09T09:31:49.180Z,7.53
2023-04-09T09:34:17.288Z,7.51
2023-04-09T09:36:44.293Z,7.66
2023-04-09T09:39:12.957Z,7.71
2023-04-09T09:41:41.159Z,7.73
2023-04-09T09:44:08.923Z,7.70
2023-04-09T09:46:38.519Z,7.64
2023-04-09T09:49:05.883Z,7.68
2023-04-09T09:51:33.919Z,7.74
2023-04-09T09:54:01.070Z,7.77
2023-04-09T09:56:32.725Z,7.98
2023-04-09T09:59:22.791Z,8.04
2023-04-09T10:01:59.645Z,7.80
2023-04-09T10:04:29.483Z,7.99
2023-04-09T10:06:57.610Z,7.90
2023-04-09T10:09:27.876Z,7.85
2023-04-09T10:11:55.963Z,7.91
2023-04-09T10:14:23.069Z,7.83
2023-04-09T10:16:49.830Z,7.94
2023-04-09T10:19:16.999Z,7.98
2023-04-09T10:21:53.651Z,7.97
2023-04-09T10:24:20.543Z,8.02
2023-04-09T10:26:47.051Z,8.11
2023-04-09T10:29:15.918Z,8.19
2023-04-09T10:31:53.059Z,8.38
2023-04-09T10:34:23.307Z,8.29
2023-04-09T10:36:53.422Z,8.81
2023-04-09T10:39:20.040Z,9.47
2023-04-09T10:41:48.923Z,9.76
2023-04-09T10:44:23.422Z,9.96
2023-04-09T10:46:55.797Z,10.12
2023-04-09T10:49:27.050Z,10.34
2023-04-09T10:51:53.496Z,10.25
2023-04-09T10:54:34.973Z,10.19
2023-04-09T10:57:07.429Z,10.34
2023-04-09T10:59:42.872Z,10.38
2023-04-09T11:02:29.191Z,10.45
2023-04-09T11:05:34.117Z,10.60
2023-04-09T11:08:06.477Z,10.91
2023-04-09T11:10:33.785Z,11.15
2023-04-09T11:13:01.081Z,11.29
2023-04-09T11:15:27.824Z,11.10
2023-04-09T11:17:54.539Z,10.90
2023-04-09T11:20:23.049Z,10.33
2023-04-09T11:22:51.891Z,10.41
2023-04-09T11:25:26.633Z,10.19
2023-04-09T11:27:53.557Z,10.01
2023-04-09T11:30:20.593Z,9.93
2023-04-09T11:32:48.067Z,9.89
2023-04-09T11:35:16.382Z,9.71
2023-04-09T11:37:44.228Z,9.74
2023-04-09T11:40:22.543Z,9.72
2023-04-09T11:42:57.886Z,9.97
2023-04-09T11:45:27.508Z,9.95
2023-04-09T11:47:54.213Z,10.17
2023-04-09T11:50:21.713Z,10.35
2023-04-09T11:52:49.173Z,10.38
2023-04-09T11:55:25.745Z,10.43
2023-04-09T11:57:56.654Z,10.65
2023-04-09T12:00:24.839Z,11.18
2023-04-09T12:02:59.820Z,11.49
2023-04-09T12:05:29.811Z,11.57
2023-04-09T12:08:05.101Z,11.33
2023-04-09T12:10:33.998Z,11.07
2023-04-09T12:13:10.414Z,10.82
2023-04-09T12:15:39.022Z,10.78
2023-04-09T12:18:09.471Z,10.90
2023-04-09T12:20:39.588Z,10.87
2023-04-09T12:23:07.578Z,10.73
2023-04-09T12:25:36.868Z,10.54
2023-04-09T12:28:05.650Z,10.65
2023-04-09T12:30:33.063Z,11.26
2023-04-09T12:32:59.596Z,11.94
2023-04-09T12:35:26.841Z,12.43
2023-04-09T12:37:53.535Z,12.61
2023-04-09T12:40:20.927Z,12.63
2023-04-09T12:42:48.158Z,12.67
2023-04-09T12:45:16.958Z,12.76
2023-04-09T12:47:44.075Z,12.89
2023-04-09T12:50:11.788Z,12.84
2023-04-09T12:52:38.510Z,13.02
2023-04-09T12:55:06.287Z,12.74
2023-04-09T12:57:33.278Z,12.71
2023-04-09T13:00:00.399Z,13.08
2023-04-09T13:02:27.105Z,13.18
2023-04-09T13:04:53.843Z,13.42
2023-04-09T13:07:20.530Z,13.52
2023-04-09T13:09:50.716Z,13.84
2023-04-09T13:12:17.707Z,14.04
2023-04-09T13:14:46.496Z,14.15
2023-04-09T13:17:13.300Z,14.23
2023-04-09T13:19:42.119Z,13.93
2023-04-09T13:22:09.493Z,14.03
2023-04-09T13:24:36.451Z,14.23
2023-04-09T13:27:09.440Z,13.82
2023-04-09T13:29:36.147Z,13.76
2023-04-09T13:32:07.019Z,13.76
2023-04-09T13:34:35.187Z,14.01
2023-04-09T13:37:03.204Z,14.05
2023-04-09T13:39:29.725Z,13.93
2023-04-09T13:41:56.684Z,14.10
2023-04-09T13:44:24.778Z,14.15
2023-04-09T13:46:51.497Z,14.25
2023-04-09T13:49:18.203Z,14.34
2023-04-09T13:51:45.189Z,14.57
2023-04-09T13:54:11.732Z,14.69
2023-04-09T13:56:39.186Z,14.73
2023-04-09T13:59:06.340Z,14.09
2023-04-09T14:01:33.852Z,13.11
2023-04-09T14:04:00.641Z,12.75
2023-04-09T14:06:27.159Z,12.36
2023-04-09T14:08:53.983Z,12.03
2023-04-09T14:11:20.686Z,11.98
2023-04-09T14:13:48.274Z,11.83
2023-04-09T14:16:14.752Z,11.86
2023-04-09T14:18:41.688Z,12.00
2023-04-09T14:21:10.124Z,12.24
2023-04-09T14:23:37.341Z,12.37
2023-04-09T14:26:04.741Z,12.77
2023-04-09T14:28:32.104Z,12.90
2023-04-09T14:31:01.479Z,13.36
2023-04-09T14:33:28.133Z,13.54
2023-04-09T14:35:54.800Z,13.84
2023-04-09T14:38:21.471Z,13.88
2023-04-09T14:40:47.884Z,14.00
2023-04-09T14:43:14.433Z,14.01
2023-04-09T14:45:40.994Z,13.79
2023-04-09T14:48:07.916Z,13.62
2023-04-09T14:50:35.352Z,13.21
2023-04-09T14:53:02.465Z,12.28
2023-04-09T14:55:29.180Z,12.15
2023-04-09T14:57:55.702Z,12.06
2023-04-09T15:00:22.429Z,11.96
2023-04-09T15:02:49.065Z,11.85
2023-04-09T15:05:15.990Z,11.80
2023-04-09T15:07:43.647Z,11.63
2023-04-09T15:10:10.812Z,11.53
2023-04-09T15:12:37.225Z,11.46
2023-04-09T15:15:08.914Z,11.55
2023-04-09T15:20:02.353Z,11.34
2023-04-09T15:22:28.692Z,11.45
2023-04-09T15:24:55.637Z,11.26
2023-04-09T15:27:22.046Z,11.40
2023-04-09T15:29:48.521Z,11.48
2023-04-09T15:32:14.992Z,11.38
2023-04-09T15:34:41.465Z,10.85
2023-04-09T15:37:07.883Z,10.95
2023-04-09T15:39:35.034Z,10.67
2023-04-09T15:42:01.969Z,10.79
2023-04-09T15:44:28.432Z,10.93
2023-04-09T15:46:54.826Z,11.02
2023-04-09T15:49:21.882Z,11.13
2023-04-09T15:51:48.421Z,11.03
2023-04-09T15:54:14.882Z,11.13
2023-04-09T15:56:41.555Z,11.12
2023-04-09T15:59:08.525Z,11.16
2023-04-09T16:01:36.292Z,11.20
2023-04-09T16:04:04.309Z,11.19
2023-04-09T16:06:30.922Z,11.14
2023-04-09T16:08:57.453Z,11.08
2023-04-09T16:11:23.955Z,10.96
2023-04-09T16:13:50.446Z,10.82
2023-04-09T16:16:16.882Z,10.84
2023-04-09T16:18:43.697Z,10.82
2023-04-09T16:21:10.184Z,10.75
2023-04-09T16:23:36.696Z,10.70
2023-04-09T16:26:03.740Z,10.64
2023-04-09T16:28:30.283Z,10.61
2023-04-09T16:30:56.801Z,10.59
2023-04-09T16:33:23.245Z,10.52
2023-04-09T16:35:49.765Z,10.45
2023-04-09T16:38:16.180Z,10.39
2023-04-09T16:40:43.906Z,10.42
2023-04-09T16:43:10.327Z,10.33
2023-04-09T16:45:36.860Z,10.26
2023-04-09T16:48:06.073Z,10.20
2023-04-09T16:50:32.880Z,10.11
2023-04-09T16:53:01.046Z,10.07
2023-04-09T16:55:27.496Z,9.89
2023-04-09T16:57:55.879Z,9.79
2023-04-09T17:00:22.445Z,9.69
2023-04-09T17:02:49.147Z,9.64
2023-04-09T17:05:17.790Z,9.65
2023-04-09T17:07:44.499Z,9.60
2023-04-09T17:10:11.448Z,9.59
2023-04-09T17:12:38.452Z,9.60
2023-04-09T17:15:05.691Z,9.62
2023-04-09T17:17:33.309Z,9.63
2023-04-09T17:20:01.436Z,9.65
2023-04-09T17:22:28.158Z,9.61
2023-04-09T17:24:54.698Z,9.63
2023-04-09T17:27:21.209Z,9.71
2023-04-09T17:29:47.825Z,9.73
2023-04-09T17:32:14.261Z,9.70
2023-04-09T17:34:40.725Z,9.68
2023-04-09T17:37:07.282Z,9.70
2023-04-09T17:39:33.724Z,9.64
2023-04-09T17:42:01.590Z,9.62
2023-04-09T17:44:28.310Z,9.52
2023-04-09T17:46:54.872Z,9.53
2023-04-09T17:49:22.401Z,9.50
2023-04-09T17:51:48.936Z,9.51
2023-04-09T17:54:15.404Z,9.42
2023-04-09T17:56:41.881Z,9.37
2023-04-09T17:59:08.422Z,9.31
2023-04-09T18:01:35.063Z,9.20
2023-04-09T18:04:02.053Z,9.23
2023-04-09T18:06:29.175Z,9.11
2023-04-09T18:08:55.602Z,9.09
2023-04-09T18:11:23.632Z,9.18
2023-04-09T18:13:52.762Z,9.31
2023-04-09T18:16:20.919Z,9.26
2023-04-09T18:18:47.610Z,9.25
2023-04-09T18:21:15.178Z,9.23
2023-04-09T18:23:41.726Z,9.25
2023-04-09T18:26:08.254Z,9.22
2023-04-09T18:28:35.432Z,9.20
2023-04-09T18:31:02.110Z,9.16
2023-04-09T18:33:28.645Z,9.07
2023-04-09T18:35:56.372Z,8.97
2023-04-09T18:38:23.029Z,8.89
2023-04-09T18:40:49.546Z,8.86
2023-04-09T18:43:16.187Z,8.82
2023-04-09T18:45:50.308Z,8.70
2023-04-09T18:48:18.082Z,8.50
2023-04-09T18:50:44.817Z,8.52
2023-04-09T18:53:11.521Z,8.48
2023-04-09T18:55:38.480Z,8.39
2023-04-09T18:58:08.654Z,8.37
2023-04-09T19:00:35.816Z,8.27
2023-04-09T19:03:03.157Z,8.19
2023-04-09T19:05:31.635Z,8.17
2023-04-09T19:07:59.573Z,8.15
2023-04-09T19:10:27.092Z,8.12
2023-04-09T19:12:54.362Z,8.09
2023-04-09T19:15:22.057Z,8.05
2023-04-09T19:17:49.170Z,7.99
2023-04-09T19:20:15.830Z,7.94
2023-04-09T19:22:47.930Z,7.89
2023-04-09T19:25:15.849Z,7.82
2023-04-09T19:27:42.348Z,7.71
2023-04-09T19:30:09.656Z,7.64
2023-04-09T19:32:36.317Z,7.65
2023-04-09T19:35:03.450Z,7.62
2023-04-09T19:37:30.444Z,7.50
2023-04-09T19:39:58.360Z,7.40
2023-04-09T19:42:25.039Z,7.33
2023-04-09T19:44:51.497Z,7.33
2023-04-09T19:47:17.949Z,7.23
2023-04-09T19:49:44.710Z,7.09
2023-04-09T19:52:11.566Z,7.15
2023-04-09T19:54:38.372Z,7.14
2023-04-09T19:57:04.978Z,7.15
2023-04-09T19:59:36.097Z,7.16
2023-04-09T20:02:03.159Z,7.12
2023-04-09T20:04:30.908Z,7.02
2023-04-09T20:06:57.612Z,6.96
2023-04-09T20:09:26.301Z,6.92
2023-04-09T20:11:53.830Z,6.86
2023-04-09T20:14:21.010Z,6.73
2023-04-09T20:16:47.917Z,6.71
2023-04-09T20:19:14.506Z,6.61
2023-04-09T20:21:41.867Z,6.55
2023-04-09T20:24:08.317Z,6.43
2023-04-09T20:26:34.773Z,6.36
2023-04-09T20:29:01.815Z,6.30
2023-04-09T20:31:28.593Z,6.20
2023-04-09T20:33:55.183Z,6.13
2023-04-09T20:36:21.622Z,6.15
2023-04-09T20:38:48.102Z,6.12
2023-04-09T20:41:14.527Z,6.05
2023-04-09T20:43:41.233Z,5.96
2023-04-09T20:46:07.783Z,5.95
2023-04-09T20:48:34.253Z,6.03
2023-04-09T20:51:01.601Z,5.96
2023-04-09T20:53:28.564Z,5.92
2023-04-09T20:55:55.223Z,5.90
2023-04-09T20:58:21.723Z,5.87
2023-04-09T21:00:48.166Z,5.78
2023-04-09T21:03:15.878Z,5.70
2023-04-09T21:05:42.452Z,5.62
2023-04-09T21:08:14.526Z,5.57
2023-04-09T21:10:41.091Z,5.48
2023-04-09T21:13:07.573Z,5.42
2023-04-09T21:15:34.040Z,5.39
2023-04-09T21:18:00.618Z,5.32
2023-04-09T21:20:27.187Z,5.21
2023-04-09T21:22:54.428Z,5.24
2023-04-09T21:25:21.024Z,5.25
2023-04-09T21:27:47.465Z,5.24
2023-04-09T21:30:14.154Z,5.01
2023-04-09T21:32:40.735Z,4.94
2023-04-09T21:35:07.677Z,4.90
2023-04-09T21:37:34.346Z,4.81
2023-04-09T21:40:01.057Z,4.80
2023-04-09T21:42:27.675Z,4.84
2023-04-09T21:44:54.144Z,4.88
2023-04-09T21:47:20.819Z,4.91
2023-04-09T21:49:47.796Z,4.97
2023-04-09T21:52:15.029Z,5.03
2023-04-09T21:54:43.404Z,5.07
2023-04-09T21:57:12.976Z,5.14
2023-04-09T21:59:41.209Z,5.16
2023-04-09T22:02:08.970Z,5.17
2023-04-09T22:04:35.610Z,5.15
2023-04-09T22:07:03.553Z,5.13
2023-04-09T22:09:31.362Z,5.03
2023-04-09T22:11:59.386Z,4.87
2023-04-09T22:14:29.208Z,4.79
2023-04-09T22:17:01.284Z,4.66
2023-04-09T22:19:29.707Z,4.56
2023-04-09T22:21:56.202Z,4.56
2023-04-09T22:24:26.985Z,4.49
2023-04-09T22:26:53.737Z,4.46
2023-04-09T22:29:20.145Z,4.30
2023-04-09T22:31:46.788Z,4.34
2023-04-09T22:34:20.942Z,4.25
2023-04-09T22:36:48.497Z,4.23
2023-04-09T22:39:15.090Z,4.20
2023-04-09T22:41:41.539Z,4.16
2023-04-09T22:44:09.373Z,4.15
2023-04-09T22:46:36.074Z,4.11
2023-04-09T22:49:05.401Z,4.04
2023-04-09T22:51:34.667Z,3.93
2023-04-09T22:54:01.832Z,3.94
2023-04-09T22:56:28.682Z,3.87
2023-04-09T22:58:55.486Z,3.88
2023-04-09T23:01:23.147Z,3.88
2023-04-09T23:03:50.409Z,3.79
2023-04-09T23:06:17.201Z,3.83
2023-04-09T23:08:44.366Z,3.86
2023-04-09T23:11:11.113Z,3.83
2023-04-09T23:13:38.561Z,3.81
2023-04-09T23:16:09.219Z,3.80
2023-04-09T23:18:36.456Z,3.82
2023-04-09T23:21:07.080Z,3.75
2023-04-09T23:23:34.454Z,3.66
2023-04-09T23:26:01.276Z,3.66
2023-04-09T23:28:28.197Z,3.66
2023-04-09T23:30:55.306Z,3.64
2023-04-09T23:33:21.768Z,3.65
2023-04-09T23:35:48.538Z,3.62
2023-04-09T23:38:15.602Z,3.58
2023-04-09T23:40:42.892Z,3.56
2023-04-09T23:43:09.692Z,3.57
2023-04-09T23:45:36.092Z,3.52
2023-04-09T23:48:03.499Z,3.48
2023-04-09T23:50:30.289Z,3.47
2023-04-09T23:53:03.331Z,3.46
2023-04-09T23:55:29.920Z,3.48
2023-04-09T23:57:56.779Z,3.45
